الصفحة الرئيسية
METAR-TAF:

METAR-TAF

مطار :

مطار ميتشيل رومان الدولي

كورور, Babeldaob, بالاو

دائرة عرض: 07-22N, خط طول: 134-32E, ارتفاع: 54 متر

مراقبة الطقس الحالي

تاريخ ووقت الإصدار 30 دقيقة قبل الساعة 03:55UTC
ريح 7 عقدة من الشمال/الشمال الشرقي تتزايد حتى 21 عقدة
درجة الحرارة 30°درجة مئوية
الرطوبة 62%
ضغط 1011 hPa
الرؤية: 24.1 كم
غيوم متفرقة على ارتفاع 1700 قدم
غيوم مفككة على ارتفاع 12000 قدم
غيوم مفككة على ارتفاع 30000 قدم

METAR: PTRO 180355Z 03007G21KT 15SM SCT017 BKN120 BKN300 30/22 A2985

زمن: 13:25 (04:25 UTC)

توقعات

تاريخ ووقت الإصدار 5ساعات و 4 دقيقة قبل الساعة 23:21UTC
التوقعات صالحة من17 الساعة 23 UTC إلى 18 الساعة 24 UTC
ريح 11 عقدة من الشمال/الشمال الشرقي
الرؤية: 10 كم
غيوم متفرقة على ارتفاع 1800 قدم
غيوم متفرقة على ارتفاع 5000 قدم
من 18 الساعة 0900 UTC
ريح 11 عقدة من الشمال الشرقي
الرؤية: 10 كم
غيوم متفرقة على ارتفاع 1800 قدم
غيوم متفرقة على ارتفاع 5000 قدم
زخات في الجوار

TAF: PTRO 172321Z 1723/1824 03011KT P6SM SCT018 SCT050 FM180900 04011KT P6SM VCSH SCT018 SCT050

أرصاد الطقس والتوقعات من أكثر من 4000 مطار (تقارير الطقس للمطار METAR والتنبؤ بالطقس بالمطارTAF).

المحطات المتاحة هي النقط الصفراء والحمراء على الخريطة.

حرك المؤشر فوق النقطة لمعرفة اسم المحطة.

ثم انقر لمعرفة أرصاد وتوقعات الطقس.

لتغيير الخارطة: اضغط على الأزرار الخضراء مع رمز الصليب الأسود للتكبير. على الزر الأخضر مع شرطة للتصغير، أو على الأسهم الخضراء للخرائط المجاورة.


METAR-TAF: